Time;durP1;ratioP1;P1;durP2;ratioP2;P2;SDS_P1;SDS_P2;PMS_P1;PMS_P2;Temp;Humidity;BMP_temperature;BMP_pressure;BME280_temperature;BME280_humidity;BME280_pressure;Samples;Min_cycle;Max_cycle;Signal;HPM_P1;HPM_P2
2021/07/08 00:00:58;;;;;;;;;;;;;;;19.71;71.33;100972.03;1733286;82;20169;-67
2021/07/08 00:03:25;;;;;;;;;;;;;;;19.67;71.51;100967.11;1732980;83;20194;-68
2021/07/08 00:05:53;;;;;;;;;;;;;;;19.64;71.61;100966.39;1732918;82;20129;-68
2021/07/08 00:08:20;;;;;;;;;;;;;;;19.61;71.73;100960.02;1733000;83;20130;-68
2021/07/08 00:10:50;;;;;;;;;;;;;;;19.57;71.80;100966.54;1733228;82;21171;-68
2021/07/08 00:13:18;;;;;;;;;;;;;;;19.54;72.03;100966.78;1733003;83;20130;-68
2021/07/08 00:15:44;;;;;;;;;;;;;;;19.49;72.30;100962.30;1733241;82;20154;-68
2021/07/08 00:18:11;;;;;;;;;;;;;;;19.43;72.42;100963.26;1732961;83;20134;-70
2021/07/08 00:20:39;;;;;;;;;;;;;;;19.39;72.52;100966.63;1733169;82;20150;-68
2021/07/08 00:23:06;;;;;;;;;;;;;;;19.34;72.66;100963.49;1732967;83;21084;-68
2021/07/08 00:25:35;;;;;;;;;;;;;;;19.29;72.83;100966.48;1732530;82;20181;-68
2021/07/08 00:28:02;;;;;;;;;;;;;;;19.23;73.06;100968.77;1732956;83;20463;-68
2021/07/08 00:30:28;;;;;;;;;;;;;;;19.21;73.19;100964.91;1733261;82;20110;-69
2021/07/08 00:32:55;;;;;;;;;;;;;;;19.19;73.29;100969.98;1732990;83;20147;-68
2021/07/08 00:35:22;;;;;;;;;;;;;;;19.16;73.31;100967.10;1733271;82;21090;-69
2021/07/08 00:37:49;;;;;;;;;;;;;;;19.13;73.42;100964.70;1732870;83;20138;-69
2021/07/08 00:40:16;;;;;;;;;;;;;;;19.11;73.52;100971.89;1733208;82;20205;-69
2021/07/08 00:42:43;;;;;;;;;;;;;;;19.09;73.75;100973.80;1733023;83;20115;-68
2021/07/08 00:45:13;;;;;;;;;;;;;;;19.08;73.80;100973.92;1733071;83;20150;-68
2021/07/08 00:47:40;;;;;;;;;;;;;;;19.05;73.90;100977.64;1732966;83;20631;-68
2021/07/08 00:50:07;;;;;;;;;;;;;;;19.03;73.98;100975.59;1733228;83;20131;-68
2021/07/08 00:52:36;;;;;;;;;;;;;;;18.98;74.01;100973.78;1733017;82;20133;-69
2021/07/08 00:59:05;;;;;;;;;;;;;;;18.96;74.13;100979.66;1733034;83;20158;-69
2021/07/08 01:01:34;;;;;;;;;;;;;;;18.94;74.14;100977.13;1733202;82;20143;-69
2021/07/08 01:04:03;;;;;;;;;;;;;;;18.92;74.14;100974.24;1733072;82;20134;-70
2021/07/08 01:06:31;;;;;;;;;;;;;;;18.90;74.22;100975.67;1743851;82;20448;-66
2021/07/08 01:09:00;;;;;;;;;;;;;;;18.88;74.20;100982.87;1743966;82;20109;-66
2021/07/08 01:11:27;;;;;;;;;;;;;;;18.87;74.14;100981.19;1744002;82;20412;-66
2021/07/08 01:13:54;;;;;;;;;;;;;;;18.87;74.17;100984.30;1744141;81;21022;-67
2021/07/08 01:16:24;;;;;;;;;;;;;;;18.86;74.08;100983.94;1743919;82;20150;-67
2021/07/08 01:18:53;;;;;;;;;;;;;;;18.85;74.06;100986.22;1744131;81;20118;-67
2021/07/08 01:21:28;;;;;;;;;;;;;;;18.85;74.06;100984.41;1743987;81;20110;-67
2021/07/08 01:23:56;;;;;;;;;;;;;;;18.85;73.98;100990.17;1743949;82;20197;-67
2021/07/08 01:26:23;;;;;;;;;;;;;;;18.82;74.05;100982.48;1743960;81;21164;-67
2021/07/08 01:28:50;;;;;;;;;;;;;;;18.81;74.06;100990.04;1743916;82;20129;-67
2021/07/08 01:31:17;;;;;;;;;;;;;;;18.79;74.08;100986.23;1744102;81;20134;-68
2021/07/08 01:33:45;;;;;;;;;;;;;;;18.78;73.98;100991.14;1744404;82;20464;-67
2021/07/08 01:36:12;;;;;;;;;;;;;;;18.78;74.00;100991.62;1744065;81;20145;-67
2021/07/08 01:38:39;;;;;;;;;;;;;;;18.78;74.06;100995.09;1743922;81;21086;-68
2021/07/08 01:41:06;;;;;;;;;;;;;;;18.76;73.99;100990.89;1743982;82;20157;-68
2021/07/08 01:43:38;;;;;;;;;;;;;;;18.74;74.02;100993.64;1743929;82;20416;-68
2021/07/08 01:46:07;;;;;;;;;;;;;;;18.72;74.08;100996.03;1743973;81;20204;-68
2021/07/08 01:48:34;;;;;;;;;;;;;;;18.68;74.12;100987.98;1743528;82;20724;-67
2021/07/08 01:51:05;;;;;;;;;;;;;;;18.65;74.18;100993.84;1743944;82;21102;-67
2021/07/08 01:53:32;;;;;;;;;;;;;;;18.63;74.13;100989.16;1744139;82;20109;-68
2021/07/08 01:56:00;;;;;;;;;;;;;;;18.63;74.25;100992.28;1743981;82;20141;-67
2021/07/08 01:58:26;;;;;;;;;;;;;;;18.61;74.35;100987.59;1744277;81;20125;-68
2021/07/08 02:00:53;;;;;;;;;;;;;;;18.58;74.45;100994.38;1744063;82;20154;-69
2021/07/08 02:03:20;;;;;;;;;;;;;;;18.56;74.52;100997.61;1744214;81;21083;-69
2021/07/08 02:05:46;;;;;;;;;;;;;;;18.56;74.60;100991.86;1737404;81;20182;-68
2021/07/08 02:08:13;;;;;;;;;;;;;;;18.57;74.56;100998.81;1733050;83;20150;-69
2021/07/08 02:10:41;;;;;;;;;;;;;;;18.59;74.52;100996.06;1733066;83;20212;-69
2021/07/08 02:13:08;;;;;;;;;;;;;;;18.60;74.47;100995.14;1733199;82;20118;-69
2021/07/08 02:15:35;;;;;;;;;;;;;;;18.63;74.37;101006.78;1733079;83;21527;-68
2021/07/08 02:18:01;;;;;;;;;;;;;;;18.67;74.22;101006.08;1733358;82;20122;-68
2021/07/08 02:20:29;;;;;;;;;;;;;;;18.72;74.18;101008.75;1733191;83;20484;-66
2021/07/08 02:22:56;;;;;;;;;;;;;;;18.76;73.99;101004.92;1733022;83;20624;-67
2021/07/08 02:25:23;;;;;;;;;;;;;;;18.82;73.80;101010.20;1733069;82;20138;-67
2021/07/08 02:27:50;;;;;;;;;;;;;;;19.02;73.46;101016.63;1733377;83;21103;-68
2021/07/08 02:30:19;;;;;;;;;;;;;;;19.30;72.69;101017.03;1733291;83;20449;-68
2021/07/08 02:32:48;;;;;;;;;;;;;;;19.71;71.63;101021.41;1733266;83;20131;-68
2021/07/08 02:35:15;;;;;;;;;;;;;;;20.17;70.20;101018.58;1733044;82;20512;-68
2021/07/08 02:37:41;;;;;;;;;;;;;;;20.66;68.53;101010.16;1733334;83;20131;-68
2021/07/08 02:40:19;;;;;;;;;;;;;;;21.15;66.74;101013.98;1733305;82;20142;-68
2021/07/08 02:42:53;;;;;;;;;;;;;;;21.64;65.08;101019.41;1733094;82;20161;-67
2021/07/08 02:45:21;;;;;;;;;;;;;;;22.14;63.25;101013.30;1733149;82;20167;-68
2021/07/08 02:47:48;;;;;;;;;;;;;;;22.59;61.48;101015.80;1733025;82;20153;-68
2021/07/08 02:50:18;;;;;;;;;;;;;;;23.01;60.23;101013.35;1733091;82;20146;-67
2021/07/08 02:52:44;;;;;;;;;;;;;;;23.42;58.77;101012.97;1733040;83;21088;-68
2021/07/08 02:55:13;;;;;;;;;;;;;;;23.80;57.37;101013.32;1732951;83;20142;-69
2021/07/08 02:57:39;;;;;;;;;;;;;;;24.12;56.09;101017.34;1732973;82;20150;-69
2021/07/08 03:00:07;;;;;;;;;;;;;;;24.32;55.34;101014.09;1733105;82;20110;-68
2021/07/08 03:02:34;;;;;;;;;;;;;;;24.53;54.81;101014.62;1733050;82;20146;-69
2021/07/08 03:05:02;;;;;;;;;;;;;;;24.76;53.92;101007.84;1734401;82;21115;-69
2021/07/08 03:07:30;;;;;;;;;;;;;;;24.93;53.34;101011.45;1743961;81;20154;-67
2021/07/08 03:09:57;;;;;;;;;;;;;;;25.14;52.70;101010.66;1744102;82;20153;-67
2021/07/08 03:12:24;;;;;;;;;;;;;;;25.36;52.12;101017.27;1744373;81;20114;-68
2021/07/08 03:14:52;;;;;;;;;;;;;;;25.53;51.38;101021.71;1744105;81;20492;-67
2021/07/08 03:17:19;;;;;;;;;;;;;;;25.67;50.90;101024.79;1744557;82;21085;-67
2021/07/08 03:19:46;;;;;;;;;;;;;;;25.79;50.46;101028.36;1744124;82;20457;-67
2021/07/08 03:22:13;;;;;;;;;;;;;;;25.91;50.15;101032.41;1744530;82;20457;-67
2021/07/08 03:24:40;;;;;;;;;;;;;;;26.02;49.84;101038.43;1719189;82;20129;-67
2021/07/08 03:27:07;;;;;;;;;;;;;;;26.14;49.53;101030.47;1744405;81;20146;-68
2021/07/08 03:29:34;;;;;;;;;;;;;;;26.20;49.49;101035.16;1744048;82;21057;-67
2021/07/08 03:32:01;;;;;;;;;;;;;;;26.34;49.34;101036.41;1744308;81;20129;-67
2021/07/08 03:34:27;;;;;;;;;;;;;;;26.52;49.29;101034.41;1744067;81;20130;-67
2021/07/08 03:36:54;;;;;;;;;;;;;;;26.76;48.91;101032.27;1744370;81;20137;-67
2021/07/08 03:39:21;;;;;;;;;;;;;;;26.89;48.27;101030.75;1744030;81;20106;-67
2021/07/08 03:41:48;;;;;;;;;;;;;;;26.95;48.27;101028.41;1744352;81;21460;-67
2021/07/08 03:44:15;;;;;;;;;;;;;;;27.01;48.47;101030.45;1743997;81;20157;-68
2021/07/08 03:46:42;;;;;;;;;;;;;;;27.14;48.30;101039.63;1744422;82;20444;-67
2021/07/08 03:49:09;;;;;;;;;;;;;;;27.28;48.07;101039.92;1744006;81;20141;-68
2021/07/08 03:51:38;;;;;;;;;;;;;;;27.51;47.62;101047.58;1743973;82;20134;-68
2021/07/08 03:54:06;;;;;;;;;;;;;;;27.66;47.15;101039.17;1744156;82;21107;-68
2021/07/08 03:56:33;;;;;;;;;;;;;;;27.77;46.88;101049.52;1744301;82;20165;-68
2021/07/08 03:58:59;;;;;;;;;;;;;;;27.85;46.68;101050.83;1744123;81;20181;-67
2021/07/08 04:01:26;;;;;;;;;;;;;;;28.00;46.34;101054.92;1743958;82;20114;-67
2021/07/08 04:03:55;;;;;;;;;;;;;;;28.21;45.68;101051.69;1744049;82;20117;-69
2021/07/08 04:06:24;;;;;;;;;;;;;;;28.32;45.57;101056.64;1743698;82;22087;-69
2021/07/08 04:08:52;;;;;;;;;;;;;;;28.39;45.38;101056.78;1743947;82;20133;-69
2021/07/08 04:11:19;;;;;;;;;;;;;;;28.49;45.05;101054.67;1744301;81;20149;-69
2021/07/08 04:13:45;;;;;;;;;;;;;;;28.58;45.32;101058.98;1743990;82;20153;-69
2021/07/08 04:16:14;;;;;;;;;;;;;;;28.75;44.83;101063.72;1744154;81;20134;-69
2021/07/08 04:18:42;;;;;;;;;;;;;;;28.92;44.33;101065.78;1743962;81;21948;-69
2021/07/08 04:21:09;;;;;;;;;;;;;;;29.03;44.23;101060.83;1744037;82;20118;-69
2021/07/08 04:23:36;;;;;;;;;;;;;;;29.18;44.02;101058.19;1744434;81;20149;-69
2021/07/08 04:26:03;;;;;;;;;;;;;;;29.27;43.97;101058.91;1743986;82;20117;-67
2021/07/08 04:28:30;;;;;;;;;;;;;;;29.40;43.67;101061.80;1744040;82;20110;-67
2021/07/08 04:30:57;;;;;;;;;;;;;;;29.55;43.33;101069.40;1743970;81;21091;-68
2021/07/08 04:33:24;;;;;;;;;;;;;;;29.76;42.96;101068.64;1744240;81;20118;-70
2021/07/08 04:35:51;;;;;;;;;;;;;;;29.94;42.56;101068.27;1743966;82;20130;-70
2021/07/08 04:38:18;;;;;;;;;;;;;;;30.01;42.37;101067.84;1744309;81;20555;-70
2021/07/08 04:40:45;;;;;;;;;;;;;;;30.11;42.53;101079.97;1744032;81;20141;-70
2021/07/08 04:43:13;;;;;;;;;;;;;;;30.28;42.01;101079.76;1743959;82;21971;-71
2021/07/08 04:45:39;;;;;;;;;;;;;;;30.33;41.92;101082.71;1743904;81;20149;-71
2021/07/08 04:48:06;;;;;;;;;;;;;;;30.30;41.92;101073.69;1744294;81;20169;-71
2021/07/08 04:50:34;;;;;;;11.30;8.60;;;;;;;30.40;41.83;101080.91;1743641;82;20764;-73
2021/07/08 04:53:02;;;;;;;10.45;7.40;;;;;;;30.59;41.28;101084.87;1742135;82;21358;-76
2021/07/08 04:55:29;;;;;;;8.33;6.08;;;;;;;30.70;41.10;101084.37;1732341;82;21203;-71
2021/07/08 04:57:56;;;;;;;11.73;6.28;;;;;;;30.77;40.61;101086.62;1715048;82;21014;-73
2021/07/08 05:00:25;;;;;;;7.47;5.60;;;;;;;30.75;40.82;101098.91;1711969;83;41787;-75
2021/07/08 05:02:54;;;;;;;14.33;6.72;;;;;;;30.70;40.62;101094.62;1726649;81;21057;-71
2021/07/08 05:05:22;;;;;;;9.23;5.80;;;;;;;30.65;40.92;101095.70;1737409;81;21052;-66
2021/07/08 05:07:50;;;;;;;13.08;5.15;;;;;;;30.70;41.15;101093.78;1720408;81;21141;-68
2021/07/08 05:10:18;;;;;;;8.73;5.78;;;;;;;30.87;40.81;101101.89;1774381;79;21504;-68
2021/07/08 05:12:45;;;;;;;11.78;5.45;;;;;;;31.06;40.46;101099.91;1756137;79;20995;-68
2021/07/08 05:15:15;;;;;;;8.23;5.20;;;;;;;31.12;40.54;101104.55;1763037;79;21030;-74
2021/07/08 05:17:44;;;;;;;9.25;5.35;;;;;;;31.20;40.25;101099.52;1784630;79;21503;-73
2021/07/08 05:20:14;;;;;;;7.53;5.12;;;;;;;31.39;40.11;101111.47;1777373;79;21782;-73
2021/07/08 05:22:41;;;;;;;8.38;5.08;;;;;;;31.63;39.44;101107.48;1756356;81;21062;-68
2021/07/08 05:25:10;;;;;;;7.55;5.80;;;;;;;31.79;39.48;101108.55;1778065;79;20974;-70
2021/07/08 05:27:38;;;;;;;7.55;4.83;;;;;;;31.96;39.15;101107.20;1733795;80;21026;-72
2021/07/08 05:30:07;;;;;;;7.00;4.85;;;;;;;32.22;38.95;101105.16;1771114;79;21045;-75
2021/07/08 05:32:35;;;;;;;7.25;4.80;;;;;;;32.46;38.25;101111.85;1736835;82;21114;-78
2021/07/08 05:35:04;;;;;;;9.08;4.70;;;;;;;32.60;37.84;101112.72;1741521;81;20991;-74
2021/07/08 05:37:31;;;;;;;6.42;4.17;;;;;;;32.78;37.35;101115.19;1775590;80;21030;-69
2021/07/08 05:39:59;;;;;;;5.15;4.53;;;;;;;32.85;37.27;101117.88;1740894;82;20935;-69
2021/07/08 05:42:26;;;;;;;5.95;4.45;;;;;;;32.89;36.73;101116.42;1716682;82;21591;-71
2021/07/08 05:44:55;;;;;;;7.03;4.37;;;;;;;32.84;37.02;101116.20;1771062;79;21094;-70
2021/07/08 05:47:24;;;;;;;4.95;3.90;;;;;;;32.95;36.69;101121.52;1769580;79;20963;-70
2021/07/08 05:49:55;;;;;;;5.80;4.22;;;;;;;33.06;36.39;101122.27;1739307;80;21045;-68
2021/07/08 05:52:23;;;;;;;6.47;4.42;;;;;;;33.17;36.25;101116.77;1736481;79;20930;-72
2021/07/08 05:54:51;;;;;;;5.33;3.70;;;;;;;33.25;35.73;101121.93;1780029;79;21615;-70
2021/07/08 05:57:22;;;;;;;7.45;4.12;;;;;;;33.22;35.88;101117.78;1765920;79;22308;-71
2021/07/08 05:59:53;;;;;;;5.00;3.80;;;;;;;33.28;35.80;101122.90;1737284;80;20978;-68
2021/07/08 06:02:22;;;;;;;4.40;3.98;;;;;;;33.37;35.82;101113.03;1777056;79;21018;-79
2021/07/08 06:04:49;;;;;;;4.97;3.90;;;;;;;33.52;35.33;101112.81;1732380;80;21541;-79
2021/07/08 06:07:17;;;;;;;7.17;4.17;;;;;;;33.53;35.47;101117.18;1760408;79;20968;-72
2021/07/08 06:09:45;;;;;;;4.10;3.70;;;;;;;33.56;35.53;101114.06;1755496;80;21122;-76
2021/07/08 06:12:13;;;;;;;7.42;3.60;;;;;;;33.60;35.20;101109.86;1751710;81;20899;-72
2021/07/08 06:14:46;;;;;;;7.05;3.77;;;;;;;33.73;34.66;101113.89;1756399;81;21007;-75
2021/07/08 06:17:28;;;;;;;9.40;3.47;;;;;;;33.89;34.11;101112.64;1764716;80;21014;-76
2021/07/08 06:20:00;;;;;;;8.05;3.62;;;;;;;34.00;33.94;101116.53;1757046;80;20957;-72
2021/07/08 06:22:36;;;;;;;7.55;3.27;;;;;;;34.03;33.49;101114.23;1749524;80;21710;-75
2021/07/08 06:25:07;;;;;;;7.40;3.27;;;;;;;34.05;34.26;101112.67;1753459;80;21710;-79
2021/07/08 06:27:34;;;;;;;8.75;3.60;;;;;;;34.21;33.78;101111.37;1728526;81;20908;-74
2021/07/08 06:30:07;;;;;;;4.53;3.25;;;;;;;34.35;33.67;101113.00;1731601;82;20923;-70
2021/07/08 06:32:35;;;;;;;4.55;3.00;;;;;;;34.44;33.65;101119.27;1765295;80;21540;-75
2021/07/08 06:35:06;;;;;;;7.37;3.20;;;;;;;34.50;32.59;101123.52;1760017;80;21813;-73
2021/07/08 06:37:35;;;;;;;10.75;3.33;;;;;;;34.53;32.55;101118.50;1763929;80;20963;-72
2021/07/08 06:40:07;;;;;;;4.30;2.92;;;;;;;34.54;31.90;101126.92;1762525;80;21101;-69
2021/07/08 06:42:35;;;;;;;4.50;3.42;;;;;;;34.51;31.95;101121.94;1767786;80;21561;-72
2021/07/08 06:45:12;;;;;;;4.90;3.22;;;;;;;34.49;32.62;101124.03;1754841;80;20954;-72
2021/07/08 06:47:46;;;;;;;5.42;3.20;;;;;;;34.55;32.35;101123.69;1726649;81;22449;-72
2021/07/08 06:50:16;;;;;;;3.40;2.60;;;;;;;34.57;31.91;101123.78;1754698;80;21059;-70
2021/07/08 06:52:45;;;;;;;9.43;2.95;;;;;;;34.67;32.39;101123.31;1755840;80;21110;-76
2021/07/08 06:55:15;;;;;;;8.55;2.80;;;;;;;34.74;31.95;101122.23;1736836;81;20983;-78
2021/07/08 06:57:51;;;;;;;3.98;2.30;;;;;;;34.80;31.98;101128.65;1761285;80;21006;-70
2021/07/08 07:00:25;;;;;;;3.67;2.52;;;;;;;34.81;31.96;101122.72;1702064;83;21540;-70
2021/07/08 07:02:56;;;;;;;3.10;2.80;;;;;;;34.76;32.34;101124.72;1719420;81;21022;-70
2021/07/08 07:05:27;;;;;;;6.90;2.50;;;;;;;34.84;32.33;101127.69;1749233;81;20978;-73
2021/07/08 07:08:02;;;;;;;6.72;2.80;;;;;;;34.89;32.44;101124.64;1752240;80;21620;-69
2021/07/08 07:10:31;;;;;;;5.95;2.55;;;;;;;34.98;32.45;101126.03;1707210;83;21026;-71
2021/07/08 07:13:04;;;;;;;3.12;2.22;;;;;;;35.15;32.30;101124.14;1725585;81;21085;-78
2021/07/08 07:15:33;;;;;;;3.12;2.20;;;;;;;35.20;31.81;101121.05;1746658;81;20989;-70
2021/07/08 07:18:04;;;;;;;4.95;2.40;;;;;;;35.24;31.54;101119.55;1727961;81;20970;-75
2021/07/08 07:20:32;;;;;;;5.67;3.00;;;;;;;35.39;30.41;101122.79;1752696;81;21604;-75
2021/07/08 07:23:00;;;;;;;4.92;2.30;;;;;;;35.57;29.56;101121.17;1763891;81;20896;-76
2021/07/08 07:25:34;;;;;;;4.60;2.45;;;;;;;35.61;28.93;101119.64;1689713;83;21546;-69
2021/07/08 07:28:01;;;;;;;4.53;2.08;;;;;;;35.55;28.75;101117.86;1750069;81;20923;-68
2021/07/08 07:30:34;;;;;;;3.22;2.12;;;;;;;35.50;28.24;101121.76;1751262;81;20990;-75
2021/07/08 07:33:06;;;;;;;2.17;1.90;;;;;;;35.45;28.19;101123.78;1756025;81;21034;-72
2021/07/08 07:35:33;;;;;;;2.45;2.00;;;;;;;35.33;27.86;101129.09;1747936;81;20979;-75
2021/07/08 07:38:07;;;;;;;8.65;3.30;;;;;;;35.28;29.06;101130.77;1742479;81;21690;-77
2021/07/08 07:40:38;;;;;;;2.72;1.92;;;;;;;35.10;29.91;101132.92;1753301;81;20923;-74
2021/07/08 07:43:10;;;;;;;7.90;6.25;;;;;;;35.06;30.05;101124.94;1749650;81;20927;-72
2021/07/08 07:45:40;;;;;;;5.12;2.80;;;;;;;35.21;27.90;101126.77;1748543;81;20996;-75
2021/07/08 07:48:11;;;;;;;4.72;2.80;;;;;;;35.19;26.74;101137.55;1763652;81;20904;-75
2021/07/08 07:50:40;;;;;;;7.40;3.75;;;;;;;35.05;26.49;101133.58;1753899;81;22380;-71
2021/07/08 07:53:14;;;;;;;6.17;2.80;;;;;;;34.93;26.50;101133.15;1754210;81;20927;-74
2021/07/08 07:55:44;;;;;;;7.10;2.83;;;;;;;34.57;27.03;101131.07;1753885;81;21482;-74
2021/07/08 07:58:13;;;;;;;6.42;3.87;;;;;;;34.26;28.09;101139.42;1763516;81;21481;-71
2021/07/08 08:00:47;;;;;;;4.05;2.05;;;;;;;34.21;28.62;101133.83;1766798;81;20899;-74
2021/07/08 08:03:18;;;;;;;4.70;3.50;;;;;;;34.29;27.51;101142.22;1750879;80;21072;-78
2021/07/08 08:08:27;;;;;;;4.10;1.77;;;;;;;34.18;27.79;101135.61;1752315;81;20909;-68
2021/07/08 08:08:27;;;;;;;3.10;1.82;;;;;;;34.30;27.83;101146.63;1743955;81;20971;-74
2021/07/08 08:10:58;;;;;;;9.75;5.37;;;;;;;34.29;27.96;101137.64;1746746;81;20982;-70
2021/07/08 08:13:32;;;;;;;3.35;1.82;;;;;;;34.33;28.28;101138.91;1753986;81;21006;-76
2021/07/08 08:16:06;;;;;;;3.47;1.67;;;;;;;34.34;28.32;101147.33;1737873;81;21962;-73
2021/07/08 08:18:38;;;;;;;6.50;1.85;;;;;;;34.21;28.35;101145.16;1743130;81;21573;-68
2021/07/08 08:21:08;;;;;;;4.05;2.42;;;;;;;34.21;28.78;101139.23;1755047;81;21015;-76
2021/07/08 08:23:37;;;;;;;6.03;1.92;;;;;;;34.39;28.94;101139.38;1752706;81;21026;-72
2021/07/08 08:26:07;;;;;;;1.70;1.60;;;;;;;34.48;28.06;101152.66;1746550;81;20965;-72
2021/07/08 08:28:44;;;;;;;2.27;1.90;;;;;;;34.27;28.30;101143.79;1723098;81;21142;-73
2021/07/08 08:31:15;;;;;;;4.87;2.42;;;;;;;34.10;29.03;101141.25;1739932;81;21007;-75
2021/07/08 08:33:50;;;;;;;3.17;2.90;;;;;;;34.15;29.35;101144.66;1778513;79;21490;-72
2021/07/08 08:36:38;;;;;;;3.27;2.98;;;;;;;34.12;28.94;101140.52;1764845;79;21619;-73
2021/07/08 08:39:18;;;;;;;3.60;2.75;;;;;;;33.87;28.89;101144.45;1774120;79;20982;-72
2021/07/08 08:42:00;;;;;;;2.60;1.70;;;;;;;33.60;29.43;101143.62;1761519;79;21152;-71
2021/07/08 08:44:35;;;;;;;3.12;1.75;;;;;;;33.53;29.64;101144.19;1765358;79;20990;-73
2021/07/08 08:47:08;;;;;;;1.80;1.70;;;;;;;33.27;30.28;101150.41;1775267;80;21635;-66
2021/07/08 08:49:42;;;;;;;2.20;1.87;;;;;;;32.90;30.97;101149.63;1768549;79;20960;-71
2021/07/08 08:52:11;;;;;;;6.12;2.00;;;;;;;32.58;31.44;101145.29;1769376;79;21044;-64
2021/07/08 08:54:41;;;;;;;;;;;;;;;32.27;31.94;101148.51;1786840;79;21136;-65
2021/07/08 08:57:08;;;;;;;;;;;;;;;32.00;32.58;101150.71;1793669;79;20431;-64
2021/07/08 08:59:35;;;;;;;;;;;;;;;31.97;32.29;101145.75;1775422;79;20126;-64
2021/07/08 09:02:18;;;;;;;;;;;;;;;32.13;32.32;101146.23;1772251;79;20085;-69
2021/07/08 09:04:46;;;;;;;;;;;;;;;32.32;30.16;101144.70;1782941;79;20092;-67
2021/07/08 09:07:27;;;;;;;;;;;;;;;32.52;30.30;101145.27;1781618;79;21106;-77
2021/07/08 09:09:56;;;;;;;;;;;;;;;32.55;30.17;101143.52;1793994;79;20486;-70
2021/07/08 09:12:24;;;;;;;;;;;;;;;32.65;29.96;101142.61;1768954;79;20177;-75
2021/07/08 09:14:52;;;;;;;;;;;;;;;32.79;30.86;101149.19;1770190;79;20083;-77
2021/07/08 09:17:22;;;;;;;;;;;;;;;32.80;30.64;101145.98;1781361;79;20097;-74
2021/07/08 09:20:08;;;;;;;;;;;;;;;32.88;30.59;101143.09;1791691;79;21117;-72
2021/07/08 09:22:35;;;;;;;2.40;2.20;;;;;;;32.87;30.32;101143.30;1768809;79;20424;-75
2021/07/08 09:25:22;;;;;;;;;;;;;;;32.80;30.68;101150.02;1733540;79;20982;-76
2021/07/08 09:28:10;;;;;;;;;;;;;;;32.60;30.86;101146.44;1770530;79;20100;-72
2021/07/08 09:30:42;;;;;;;;;;;;;;;32.28;31.42;101153.39;1765751;79;20427;-74
2021/07/08 09:33:31;;;;;;;;;;;;;;;32.03;31.72;101149.80;1773695;79;20141;-73
2021/07/08 09:36:09;;;;;;;;;;;;;;;31.78;32.09;101149.47;1768814;79;20139;-76
2021/07/08 09:38:40;;;;;;;;;;;;;;;31.35;32.46;101147.88;1771737;79;20091;-74
2021/07/08 09:41:15;;;;;;;;;;;;;;;30.99;32.79;101148.78;1777854;79;20096;-73
2021/07/08 09:43:42;;;;;;;;;;;;;;;30.79;33.90;101152.60;1751696;80;20113;-75
2021/07/08 09:46:12;;;;;;;;;;;;;;;30.73;33.28;101146.67;1773390;79;21146;-68
2021/07/08 09:49:08;;;;;;;;;;;;;;;30.74;33.19;101142.96;1783002;79;20096;-71
2021/07/08 09:51:47;;;;;;;;;;;;;;;30.73;33.11;101141.80;1783294;79;20114;-71
2021/07/08 09:54:24;;;;;;;;;;;;;;;30.65;33.36;101144.61;1808247;79;20079;-73
2021/07/08 09:56:53;;;;;;;;;;;;;;;30.49;33.89;101142.42;1793218;79;20426;-71
2021/07/08 09:59:21;;;;;;;;;;;;;;;30.32;33.82;101138.83;1796285;79;21160;-72
2021/07/08 10:01:57;;;;;;;;;;;;;;;30.18;34.09;101137.81;1776935;79;20202;-63
2021/07/08 10:04:25;;;;;;;;;;;;;;;30.10;34.15;101133.38;1769024;80;20363;-65
2021/07/08 10:06:53;;;;;;;;;;;;;;;30.08;34.86;101127.86;1780534;80;20160;-64
2021/07/08 10:09:20;;;;;;;;;;;;;;;30.06;34.63;101127.21;1767827;80;20108;-65
2021/07/08 10:11:50;;;;;;;;;;;;;;;30.05;33.97;101124.20;1767376;80;20623;-65
2021/07/08 10:14:19;;;;;;;;;;;;;;;30.02;34.11;101118.69;1770298;80;20092;-63
2021/07/08 10:16:50;;;;;;;;;;;;;;;29.98;33.78;101116.56;1766518;80;20111;-63
2021/07/08 10:19:21;;;;;;;;;;;;;;;29.95;33.76;101126.33;1742882;81;20103;-65
2021/07/08 10:21:48;;;;;;;;;;;;;;;29.91;33.41;101115.63;1753777;81;20136;-68
2021/07/08 10:24:15;;;;;;;;;;;;;;;29.87;33.78;101119.20;1766390;81;21033;-66
2021/07/08 10:26:47;;;;;;;;;;;;;;;29.90;33.28;101113.45;1759455;81;20121;-64
2021/07/08 10:29:13;;;;;;;;;;;;;;;29.94;33.05;101114.75;1756657;80;20112;-65
2021/07/08 10:31:41;;;;;;;;;;;;;;;29.97;33.63;101106.84;1761752;80;20120;-65
2021/07/08 10:34:10;;;;;;;;;;;;;;;30.03;33.22;101110.95;1757134;80;20414;-64
2021/07/08 10:36:39;;;;;;;;;;;;;;;30.03;33.13;101120.36;1761235;80;21178;-65
2021/07/08 10:39:11;;;;;;;;;;;;;;;29.97;34.00;101120.27;1764992;80;20096;-66
2021/07/08 10:41:43;;;;;;;;;;;;;;;29.93;33.80;101113.09;1765858;80;20081;-65
2021/07/08 10:44:35;;;;;;;;;;;;;;;29.90;33.79;101119.34;1768727;81;20115;-63
2021/07/08 10:47:02;;;;;;;;;;;;;;;29.88;33.51;101116.00;1773603;81;20163;-65
2021/07/08 10:49:39;;;;;;;;;;;;;;;29.85;32.85;101123.92;1770973;81;21033;-63
2021/07/08 10:52:10;;;;;;;;;;;;;;;29.79;32.37;101114.75;1767977;80;20193;-64
2021/07/08 10:54:38;;;;;;;;;;;;;;;29.71;32.46;101112.66;1763459;80;20422;-64
2021/07/08 10:57:05;;;;;;;;;;;;;;;29.65;33.03;101107.52;1771466;80;20610;-65
2021/07/08 10:59:45;;;;;;;;;;;;;;;29.67;33.17;101105.98;1735660;80;20112;-68
2021/07/08 11:02:10;;;;;;;;;;;;;;;29.70;34.09;101117.70;1769758;80;21562;-66
2021/07/08 11:04:46;;;;;;;;;;;;;;;29.68;34.21;101113.02;1755766;80;20142;-66
2021/07/08 11:07:21;;;;;;;;;;;;;;;29.62;34.01;101101.17;1748441;81;20151;-66
2021/07/08 11:10:02;;;;;;;;;;;;;;;29.59;34.28;101101.53;1772957;79;20116;-71
2021/07/08 11:12:34;;;;;;;;;;;;;;;29.58;35.29;101099.90;1778410;80;20158;-66
2021/07/08 11:15:04;;;;;;;;;;;;;;;29.59;34.06;101106.91;1793274;80;20185;-64
2021/07/08 11:17:41;;;;;;;;;;;;;;;29.55;33.57;101101.61;1781233;80;20124;-67
2021/07/08 11:20:27;;;;;;;;;;;;;;;29.50;33.91;101089.24;1788488;80;20173;-64
2021/07/08 11:22:53;;;;;;;;;;;;;;;29.51;34.00;101096.28;1782509;80;20167;-70
2021/07/08 11:25:20;;;;;;;;;;;;;;;29.51;34.18;101095.77;1774872;80;20119;-68
2021/07/08 11:27:47;;;;;;;;;;;;;;;29.48;34.19;101101.50;1775794;79;21579;-74
2021/07/08 11:30:18;;;;;;;;;;;;;;;29.45;33.99;101089.80;1775691;79;20120;-70
2021/07/08 11:32:48;;;;;;;;;;;;;;;29.44;33.47;101096.68;1783226;80;20116;-68
2021/07/08 11:35:20;;;;;;;;;;;;;;;29.41;33.29;101080.95;1778792;80;20197;-66
2021/07/08 11:37:56;;;;;;;;;;;;;;;29.43;33.24;101085.63;1766455;79;20151;-66
2021/07/08 11:40:22;;;;;;;;;;;;;;;29.42;33.59;101080.77;1776514;80;21214;-66
2021/07/08 11:42:51;;;;;;;;;;;;;;;29.45;33.58;101079.56;1785036;80;20152;-73
2021/07/08 11:45:20;;;;;;;;;;;;;;;29.47;34.08;101081.05;1781821;80;20166;-67
2021/07/08 11:47:51;;;;;;;;;;;;;;;29.49;34.14;101082.20;1781335;80;20092;-66
2021/07/08 11:50:24;;;;;;;;;;;;;;;29.53;34.06;101083.52;1776119;80;20068;-73
2021/07/08 11:53:14;;;;;;;;;;;;;;;29.55;34.24;101081.48;1777852;80;21056;-72
2021/07/08 11:55:50;;;;;;;;;;;;;;;29.55;34.68;101077.45;1777731;80;20319;-72
2021/07/08 11:58:23;;;;;;;;;;;;;;;29.52;33.62;101085.87;1776873;80;20119;-67
2021/07/08 12:00:52;;;;;;;;;;;;;;;29.45;33.69;101080.91;1792554;80;20144;-71
2021/07/08 12:03:22;;;;;;;;;;;;;;;29.40;33.37;101087.30;1780091;80;20119;-71
2021/07/08 12:06:00;;;;;;;;;;;;;;;29.37;33.74;101079.61;1778996;80;21097;-74
2021/07/08 12:08:31;;;;;;;;;;;;;;;29.38;33.84;101079.94;1778297;78;20159;-76
2021/07/08 12:11:11;;;;;;;;;;;;;;;29.41;33.82;101078.27;1778226;79;20081;-73
2021/07/08 12:13:47;;;;;;;;;;;;;;;29.39;34.16;101077.06;1740387;81;20200;-73
2021/07/08 12:16:16;;;;;;;;;;;;;;;29.37;34.00;101067.53;1745533;80;20080;-70
2021/07/08 12:18:44;;;;;;;;;;;;;;;29.36;34.07;101072.58;1749969;81;21110;-71
2021/07/08 12:21:25;;;;;;;;;;;;;;;29.36;34.43;101077.94;1744070;81;20129;-71
2021/07/08 12:23:54;;;;;;;;;;;;;;;29.35;34.44;101074.93;1725096;81;20135;-67
2021/07/08 12:26:35;;;;;;;;;;;;;;;29.37;34.86;101070.22;1749751;81;20116;-71
2021/07/08 12:29:30;;;;;;;;;;;;;;;29.35;35.32;101073.08;1760399;80;20183;-72